createdAt,value
2023-05-10T00:01:22.421Z,7.20
2023-05-10T00:03:49.381Z,6.93
2023-05-10T00:06:16.382Z,6.63
2023-05-10T00:08:43.117Z,6.53
2023-05-10T00:11:10.072Z,6.60
2023-05-10T00:13:36.828Z,6.27
2023-05-10T00:16:03.826Z,6.70
2023-05-10T00:18:30.722Z,6.77
2023-05-10T00:20:57.555Z,6.73
2023-05-10T00:23:24.361Z,6.70
2023-05-10T00:25:51.225Z,6.50
2023-05-10T00:28:17.972Z,7.10
2023-05-10T00:30:44.719Z,6.67
2023-05-10T00:33:12.484Z,6.93
2023-05-10T00:35:39.435Z,6.97
2023-05-10T00:38:06.241Z,6.90
2023-05-10T00:40:33.087Z,7.20
2023-05-10T00:43:01.582Z,6.70
2023-05-10T00:45:28.381Z,6.90
2023-05-10T00:47:56.985Z,7.63
2023-05-10T00:50:24.849Z,7.50
2023-05-10T00:52:51.725Z,7.37
2023-05-10T00:55:19.468Z,7.77
2023-05-10T00:57:46.701Z,6.70
2023-05-10T01:00:18.843Z,6.87
2023-05-10T01:02:47.321Z,6.97
2023-05-10T01:05:14.727Z,6.77
2023-05-10T01:07:42.051Z,7.10
2023-05-10T01:10:09.834Z,7.17
2023-05-10T01:12:39.532Z,6.93
2023-05-10T01:15:11.898Z,7.53
2023-05-10T01:17:40.577Z,7.03
2023-05-10T01:20:10.524Z,6.70
2023-05-10T01:22:52.716Z,7.73
2023-05-10T01:25:28.585Z,7.20
2023-05-10T01:28:14.527Z,6.70
2023-05-10T01:30:56.343Z,7.53
2023-05-10T01:33:37.698Z,8.30
2023-05-10T01:36:10.736Z,6.60
2023-05-10T01:38:51.694Z,7.10
2023-05-10T01:41:32.002Z,7.20
2023-05-10T01:44:25.699Z,6.90
2023-05-10T01:47:17.901Z,7.40
2023-05-10T01:49:51.898Z,7.97
2023-05-10T01:52:23.443Z,7.67
2023-05-10T01:55:01.238Z,7.10
2023-05-10T01:57:33.758Z,7.00
2023-05-10T02:00:07.889Z,8.00
2023-05-10T02:02:39.135Z,7.43
2023-05-10T02:05:10.277Z,7.90
2023-05-10T02:07:38.168Z,7.50
2023-05-10T02:10:08.329Z,7.33
2023-05-10T02:12:43.687Z,8.23
2023-05-10T02:15:12.840Z,7.63
2023-05-10T02:17:41.258Z,8.23
2023-05-10T02:20:09.576Z,8.03
2023-05-10T02:22:37.734Z,7.43
2023-05-10T02:25:05.105Z,8.87
2023-05-10T02:27:32.694Z,7.93
2023-05-10T02:30:00.356Z,7.63
2023-05-10T02:32:28.727Z,8.60
2023-05-10T02:34:57.046Z,8.50
2023-05-10T02:37:25.053Z,8.27
2023-05-10T02:39:53.159Z,8.47
2023-05-10T02:42:23.791Z,8.27
2023-05-10T02:44:53.596Z,8.07
2023-05-10T02:47:20.892Z,8.27
2023-05-10T02:49:48.215Z,8.10
2023-05-10T02:52:20.273Z,7.40
2023-05-10T02:54:51.746Z,7.83
2023-05-10T02:57:23.262Z,8.70
2023-05-10T02:59:50.262Z,8.13
2023-05-10T03:02:17.152Z,8.00
2023-05-10T03:04:43.939Z,7.10
2023-05-10T03:07:11.143Z,7.67
2023-05-10T03:09:37.962Z,7.50
2023-05-10T03:12:32.823Z,7.90
2023-05-10T03:15:19.421Z,7.80
2023-05-10T03:17:56.848Z,8.50
2023-05-10T03:20:57.638Z,7.50
2023-05-10T03:23:40.138Z,7.30
2023-05-10T03:26:08.347Z,6.73
2023-05-10T03:28:36.610Z,7.30
2023-05-10T03:31:05.530Z,7.90
2023-05-10T03:33:32.948Z,7.83
2023-05-10T03:35:59.673Z,7.90
2023-05-10T03:38:28.341Z,7.90
2023-05-10T03:40:56.752Z,7.33
2023-05-10T03:43:23.517Z,7.53
2023-05-10T03:45:50.307Z,7.17
2023-05-10T03:48:17.070Z,8.20
2023-05-10T03:50:43.955Z,7.77
2023-05-10T03:53:10.723Z,7.87
2023-05-10T03:55:37.575Z,7.83
2023-05-10T03:58:04.391Z,7.30
2023-05-10T04:00:32.018Z,7.37
2023-05-10T04:02:58.866Z,7.13
2023-05-10T04:05:25.801Z,8.33
2023-05-10T04:07:52.630Z,7.73
2023-05-10T04:10:19.611Z,7.83
2023-05-10T04:12:46.664Z,6.90
2023-05-10T04:15:13.532Z,7.10
2023-05-10T04:17:40.710Z,7.03
2023-05-10T04:20:08.315Z,6.83
2023-05-10T04:22:35.225Z,7.57
2023-05-10T04:25:01.984Z,6.87
2023-05-10T04:27:28.916Z,7.40
2023-05-10T04:29:55.725Z,7.10
2023-05-10T04:32:22.529Z,6.13
2023-05-10T04:34:49.380Z,6.80
2023-05-10T04:37:16.156Z,6.53
2023-05-10T04:39:42.976Z,6.50
2023-05-10T04:42:10.177Z,6.73
2023-05-10T04:44:37.297Z,7.37
2023-05-10T04:47:04.563Z,6.23
2023-05-10T04:49:31.377Z,6.17
2023-05-10T04:51:58.127Z,5.90
2023-05-10T04:54:25.303Z,5.57
2023-05-10T04:56:52.346Z,6.10
2023-05-10T04:59:19.134Z,6.27
2023-05-10T05:01:45.957Z,5.37
2023-05-10T05:04:12.777Z,5.53
2023-05-10T05:06:39.607Z,6.53
2023-05-10T05:09:06.447Z,6.20
2023-05-10T05:11:33.334Z,5.73
2023-05-10T05:14:00.548Z,6.30
2023-05-10T05:16:27.760Z,5.80
2023-05-10T05:18:54.629Z,5.87
2023-05-10T05:21:22.312Z,5.80
2023-05-10T05:23:49.102Z,5.23
2023-05-10T05:26:16.138Z,4.57
2023-05-10T05:28:43.133Z,5.47
2023-05-10T05:31:10.173Z,5.03
2023-05-10T05:33:37.628Z,5.00
2023-05-10T05:36:06.042Z,4.70
2023-05-10T05:38:33.064Z,4.70
2023-05-10T05:40:59.818Z,4.50
2023-05-10T05:43:26.662Z,4.03
2023-05-10T05:45:54.789Z,4.57
2023-05-10T05:48:22.715Z,4.43
2023-05-10T05:50:49.484Z,5.43
2023-05-10T05:53:16.866Z,4.20
2023-05-10T05:55:58.195Z,4.10
2023-05-10T05:58:26.095Z,4.43
2023-05-10T06:00:53.639Z,3.63
2023-05-10T06:03:20.839Z,4.20
2023-05-10T06:05:48.012Z,3.90
2023-05-10T06:08:14.813Z,4.10
2023-05-10T06:10:41.555Z,4.10
2023-05-10T06:13:08.411Z,3.30
2023-05-10T06:15:35.646Z,3.70
2023-05-10T06:18:02.476Z,4.40
2023-05-10T06:20:29.330Z,3.70
2023-05-10T06:22:56.047Z,3.30
2023-05-10T06:25:22.785Z,3.30
2023-05-10T06:27:53.423Z,3.77
2023-05-10T06:30:21.248Z,3.77
2023-05-10T06:32:48.130Z,4.53
2023-05-10T06:35:15.123Z,3.40
2023-05-10T06:37:42.301Z,3.53
2023-05-10T06:40:10.346Z,3.10
2023-05-10T06:42:37.365Z,3.97
2023-05-10T06:45:04.632Z,3.70
2023-05-10T06:47:31.620Z,2.70
2023-05-10T06:49:58.471Z,3.30
2023-05-10T06:52:25.308Z,3.87
2023-05-10T06:54:52.055Z,3.30
2023-05-10T06:57:30.710Z,4.40
2023-05-10T07:00:01.757Z,3.40
2023-05-10T07:02:28.857Z,3.60
2023-05-10T07:04:55.894Z,3.40
2023-05-10T07:07:22.757Z,3.23
2023-05-10T07:09:50.881Z,4.13
2023-05-10T07:12:17.758Z,3.00
2023-05-10T07:14:44.531Z,3.07
2023-05-10T07:17:11.331Z,3.00
2023-05-10T07:19:38.212Z,3.20
2023-05-10T07:22:05.139Z,3.43
2023-05-10T07:24:33.319Z,2.73
2023-05-10T07:27:00.277Z,3.20
2023-05-10T07:29:27.535Z,2.50
2023-05-10T07:31:55.362Z,3.50
2023-05-10T07:34:23.934Z,3.17
2023-05-10T07:36:50.716Z,2.97
2023-05-10T07:39:26.698Z,3.60
2023-05-10T07:41:54.733Z,3.00
2023-05-10T07:44:21.534Z,2.87
2023-05-10T07:46:49.482Z,2.90
2023-05-10T07:49:16.847Z,3.40
2023-05-10T07:51:43.699Z,2.90
2023-05-10T07:54:10.554Z,3.03
2023-05-10T07:56:37.433Z,2.93
2023-05-10T07:59:06.064Z,2.70
2023-05-10T08:01:34.293Z,3.87
2023-05-10T08:04:02.807Z,3.10
2023-05-10T08:06:30.959Z,3.10
2023-05-10T08:08:58.386Z,3.03
2023-05-10T08:11:25.716Z,3.20
2023-05-10T08:13:52.843Z,3.70
2023-05-10T08:16:19.987Z,3.10
2023-05-10T08:18:47.992Z,3.37
2023-05-10T08:21:16.381Z,2.93
2023-05-10T08:23:44.886Z,3.40
2023-05-10T08:26:12.290Z,3.03
2023-05-10T08:28:39.637Z,3.50
2023-05-10T08:31:06.883Z,3.40
2023-05-10T08:33:34.077Z,3.00
2023-05-10T08:36:00.997Z,3.07
2023-05-10T08:38:28.072Z,2.60
2023-05-10T08:41:00.026Z,3.27
2023-05-10T08:43:31.275Z,2.80
2023-05-10T08:46:03.928Z,2.63
2023-05-10T08:48:32.014Z,3.30
2023-05-10T08:51:01.615Z,3.23
2023-05-10T08:53:29.714Z,3.43
2023-05-10T08:55:56.685Z,2.77
2023-05-10T08:58:23.526Z,2.63
2023-05-10T09:00:53.728Z,3.60
2023-05-10T09:03:20.696Z,2.90
2023-05-10T09:05:48.477Z,2.87
2023-05-10T09:08:17.331Z,3.27
2023-05-10T09:10:49.051Z,2.70
2023-05-10T09:13:19.237Z,2.70
2023-05-10T09:15:46.736Z,3.27
2023-05-10T09:18:13.833Z,3.27
2023-05-10T09:20:41.312Z,3.00
2023-05-10T09:23:08.434Z,3.73
2023-05-10T09:25:36.065Z,3.30
2023-05-10T09:28:03.128Z,3.70
2023-05-10T09:30:31.866Z,3.03
2023-05-10T09:33:00.543Z,3.00
2023-05-10T09:35:30.196Z,3.60
2023-05-10T09:38:00.753Z,2.70
2023-05-10T09:40:29.064Z,3.00
2023-05-10T09:43:08.821Z,2.50
2023-05-10T09:45:38.667Z,3.27
2023-05-10T09:48:06.307Z,2.77
2023-05-10T09:50:33.092Z,2.93
2023-05-10T09:53:04.488Z,3.17
2023-05-10T09:55:41.394Z,3.13
2023-05-10T09:58:11.485Z,3.20
2023-05-10T10:00:46.192Z,3.40
2023-05-10T10:03:18.314Z,2.90
2023-05-10T10:05:45.965Z,2.33
2023-05-10T10:08:13.785Z,3.27
2023-05-10T10:10:46.592Z,2.90
2023-05-10T10:13:13.731Z,3.10
2023-05-10T10:15:40.667Z,2.70
2023-05-10T10:18:08.926Z,3.10
2023-05-10T10:20:38.688Z,2.93
2023-05-10T10:23:05.470Z,3.50
2023-05-10T10:25:33.188Z,3.37
2023-05-10T10:28:16.826Z,2.90
2023-05-10T10:30:46.870Z,3.03
2023-05-10T10:33:56.479Z,3.47
2023-05-10T10:36:23.390Z,2.90
2023-05-10T10:38:50.135Z,2.63
2023-05-10T10:41:37.385Z,2.90
2023-05-10T10:44:40.116Z,2.73
2023-05-10T10:47:14.118Z,3.40
2023-05-10T10:50:03.016Z,2.50
2023-05-10T10:52:34.393Z,2.43
2023-05-10T10:55:10.281Z,2.53
2023-05-10T10:57:47.188Z,2.77
2023-05-10T11:00:37.062Z,3.10
2023-05-10T11:03:08.573Z,2.97
2023-05-10T11:05:46.402Z,2.60
2023-05-10T11:08:17.885Z,2.80
2023-05-10T11:11:15.961Z,2.87
2023-05-10T11:13:42.830Z,2.27
2023-05-10T11:16:28.026Z,2.90
2023-05-10T11:19:06.293Z,2.83
2023-05-10T11:21:34.420Z,3.10
2023-05-10T11:24:06.664Z,2.90
2023-05-10T11:26:35.765Z,3.20
2023-05-10T11:29:04.063Z,3.03
2023-05-10T11:31:30.960Z,2.90
2023-05-10T11:33:59.682Z,2.73
2023-05-10T11:36:37.429Z,3.00
2023-05-10T11:39:05.494Z,2.80
2023-05-10T11:41:32.775Z,2.70
2023-05-10T11:44:00.255Z,2.80
2023-05-10T11:46:28.761Z,2.90
2023-05-10T11:48:59.244Z,2.90
2023-05-10T11:51:26.483Z,2.30
2023-05-10T11:53:58.324Z,2.80
2023-05-10T11:56:27.261Z,3.03
2023-05-10T11:58:56.990Z,3.00
2023-05-10T12:01:25.404Z,2.80
2023-05-10T12:03:53.926Z,2.70
2023-05-10T12:06:21.466Z,3.00
2023-05-10T12:08:53.304Z,2.50
2023-05-10T12:11:21.941Z,2.70
2023-05-10T12:13:48.893Z,2.67
2023-05-10T12:16:21.707Z,2.70
2023-05-10T12:18:53.258Z,3.10
2023-05-10T12:21:21.636Z,2.43
2023-05-10T12:23:54.379Z,2.53
2023-05-10T12:26:29.348Z,2.87
2023-05-10T12:28:56.812Z,3.20
2023-05-10T12:31:23.660Z,3.00
2023-05-10T12:33:50.511Z,2.73
2023-05-10T12:36:18.277Z,2.53
2023-05-10T12:38:49.128Z,2.77
2023-05-10T12:41:17.827Z,2.90
2023-05-10T12:43:46.311Z,3.03
2023-05-10T12:46:15.409Z,2.30
2023-05-10T12:48:44.025Z,3.07
2023-05-10T12:51:13.847Z,2.67
2023-05-10T12:53:42.766Z,2.70
2023-05-10T12:56:11.426Z,2.50
2023-05-10T12:58:39.120Z,3.00
2023-05-10T13:01:06.578Z,3.10
2023-05-10T13:03:33.438Z,2.93
2023-05-10T13:06:00.207Z,3.30
2023-05-10T13:08:28.203Z,2.33
2023-05-10T13:10:54.938Z,2.90
2023-05-10T13:13:21.732Z,3.00
2023-05-10T13:15:48.489Z,2.67
2023-05-10T13:18:15.363Z,2.77
2023-05-10T13:20:42.235Z,2.43
2023-05-10T13:23:08.988Z,3.23
2023-05-10T13:25:35.780Z,2.50
2023-05-10T13:28:03.010Z,2.93
2023-05-10T13:30:29.947Z,2.60
2023-05-10T13:32:56.741Z,2.97
2023-05-10T13:35:23.591Z,2.87
2023-05-10T13:37:50.442Z,2.63
2023-05-10T13:40:18.173Z,2.77
2023-05-10T13:42:45.131Z,2.80
2023-05-10T13:45:13.366Z,2.77
2023-05-10T13:47:40.366Z,2.40
2023-05-10T13:50:07.818Z,2.80
2023-05-10T13:52:34.720Z,2.87
2023-05-10T13:55:01.636Z,2.27
2023-05-10T13:57:29.814Z,2.40
2023-05-10T13:59:58.287Z,3.23
2023-05-10T14:02:25.787Z,3.03
2023-05-10T14:04:52.735Z,2.67
2023-05-10T14:07:19.457Z,2.60
2023-05-10T14:09:46.189Z,2.40
2023-05-10T14:12:13.118Z,2.80
2023-05-10T14:14:40.038Z,2.67
2023-05-10T14:17:06.871Z,3.00
2023-05-10T14:19:35.001Z,2.73
2023-05-10T14:22:01.803Z,3.00
2023-05-10T14:24:28.713Z,2.60
2023-05-10T14:26:55.479Z,2.50
2023-05-10T14:29:23.209Z,3.17
2023-05-10T14:31:50.624Z,2.77
2023-05-10T14:34:17.417Z,2.77
2023-05-10T14:36:44.239Z,2.80
2023-05-10T14:39:13.639Z,2.87
2023-05-10T14:41:43.845Z,2.80
2023-05-10T14:44:11.041Z,2.70
2023-05-10T14:46:38.277Z,2.90
2023-05-10T14:49:05.166Z,2.80
2023-05-10T14:51:32.777Z,2.80
2023-05-10T14:53:59.956Z,2.77
2023-05-10T14:56:29.406Z,2.47
2023-05-10T14:58:56.528Z,2.80
2023-05-10T15:01:24.176Z,2.53
2023-05-10T15:03:51.698Z,2.60
2023-05-10T15:06:25.819Z,2.60
2023-05-10T15:08:52.686Z,2.83
2023-05-10T15:11:19.626Z,2.67
2023-05-10T15:13:46.420Z,2.90
2023-05-10T15:16:13.193Z,2.60
2023-05-10T15:18:39.984Z,3.20
2023-05-10T15:21:06.780Z,2.20
2023-05-10T15:23:33.663Z,2.97
2023-05-10T15:26:01.626Z,2.23
2023-05-10T15:28:28.414Z,2.43
2023-05-10T15:30:56.309Z,2.90
2023-05-10T15:33:23.781Z,2.60
2023-05-10T15:35:50.592Z,2.93
2023-05-10T15:38:17.385Z,3.10
2023-05-10T15:40:44.105Z,3.03
2023-05-10T15:43:10.943Z,3.20
2023-05-10T15:45:37.856Z,4.87
2023-05-10T15:48:04.999Z,3.40
2023-05-10T15:50:31.885Z,2.80
2023-05-10T15:52:58.606Z,3.33
2023-05-10T15:55:26.366Z,2.80
2023-05-10T15:57:53.298Z,4.40
2023-05-10T16:00:20.277Z,4.70
2023-05-10T16:02:47.115Z,4.70
2023-05-10T16:05:14.299Z,4.67
2023-05-10T16:07:42.042Z,4.77
2023-05-10T16:10:11.127Z,4.70
2023-05-10T16:12:39.061Z,5.17
2023-05-10T16:15:06.727Z,5.60
2023-05-10T16:17:33.631Z,6.63
2023-05-10T16:20:01.313Z,5.33
2023-05-10T16:22:28.771Z,5.63
2023-05-10T16:24:56.875Z,5.60
2023-05-10T16:27:23.693Z,4.83
2023-05-10T16:29:50.630Z,5.13
2023-05-10T16:32:17.523Z,4.97
2023-05-10T16:34:44.330Z,4.53
2023-05-10T16:37:11.331Z,5.33
2023-05-10T16:39:38.168Z,4.80
2023-05-10T16:42:04.978Z,5.63
2023-05-10T16:44:31.721Z,5.07
2023-05-10T16:46:58.444Z,5.20
2023-05-10T16:49:26.125Z,5.43
2023-05-10T16:51:53.213Z,5.60
2023-05-10T16:54:21.349Z,5.93
2023-05-10T16:56:48.276Z,5.67
2023-05-10T16:59:15.149Z,4.93
2023-05-10T17:01:41.933Z,5.30
2023-05-10T17:04:09.038Z,5.47
2023-05-10T17:06:37.126Z,5.33
2023-05-10T17:09:05.605Z,5.10
2023-05-10T17:11:33.228Z,4.77
2023-05-10T17:14:01.827Z,5.80
2023-05-10T17:16:29.863Z,5.50
2023-05-10T17:18:56.767Z,5.63
2023-05-10T17:21:23.599Z,5.77
2023-05-10T17:23:50.371Z,5.37
2023-05-10T17:26:17.297Z,5.40
2023-05-10T17:28:44.020Z,5.10
2023-05-10T17:31:10.814Z,5.40
2023-05-10T17:33:37.638Z,5.47
2023-05-10T17:36:04.537Z,5.20
2023-05-10T17:38:31.319Z,5.50
2023-05-10T17:40:58.068Z,5.37
2023-05-10T17:43:26.065Z,4.90
2023-05-10T17:45:52.987Z,5.90
2023-05-10T17:48:19.844Z,5.30
2023-05-10T17:50:46.893Z,4.30
2023-05-10T17:53:13.674Z,5.10
2023-05-10T17:55:42.136Z,5.87
2023-05-10T17:58:11.045Z,5.50
2023-05-10T18:00:38.345Z,5.30
2023-05-10T18:03:05.883Z,5.53
2023-05-10T18:05:37.235Z,5.50
2023-05-10T18:08:05.037Z,4.63
2023-05-10T18:10:32.280Z,6.03
2023-05-10T18:12:59.082Z,6.37
2023-05-10T18:15:27.624Z,6.70
2023-05-10T18:17:55.778Z,6.67
2023-05-10T18:20:22.879Z,6.13
2023-05-10T18:22:49.651Z,8.20
2023-05-10T18:25:17.291Z,7.57
2023-05-10T18:27:44.318Z,7.10
2023-05-10T18:30:12.508Z,6.73
2023-05-10T18:32:39.774Z,6.90
2023-05-10T18:35:07.761Z,7.03
2023-05-10T18:37:35.219Z,6.47
2023-05-10T18:40:02.294Z,6.30
2023-05-10T18:42:29.067Z,6.47
2023-05-10T18:44:55.906Z,6.50
2023-05-10T18:47:22.832Z,7.07
2023-05-10T18:49:49.766Z,6.10
2023-05-10T18:52:16.927Z,5.87
2023-05-10T18:54:43.720Z,6.60
2023-05-10T18:57:12.567Z,6.23
2023-05-10T18:59:39.760Z,5.93
2023-05-10T19:02:06.659Z,6.70
2023-05-10T19:04:33.656Z,6.53
2023-05-10T19:07:02.014Z,7.03
2023-05-10T19:09:28.935Z,6.53
2023-05-10T19:11:55.999Z,5.70
2023-05-10T19:14:22.894Z,6.50
2023-05-10T19:16:53.255Z,6.90
2023-05-10T19:19:21.145Z,6.00
2023-05-10T19:21:48.366Z,6.73
2023-05-10T19:24:15.370Z,6.17
2023-05-10T19:26:42.168Z,5.97
2023-05-10T19:29:09.428Z,6.97
2023-05-10T19:31:36.337Z,6.67
2023-05-10T19:34:04.179Z,6.60
2023-05-10T19:36:34.239Z,6.90
2023-05-10T19:39:01.082Z,7.30
2023-05-10T19:41:27.994Z,6.43
2023-05-10T19:43:54.726Z,6.73
2023-05-10T19:46:21.505Z,6.77
2023-05-10T19:48:48.331Z,6.43
2023-05-10T19:51:15.118Z,6.63
2023-05-10T19:53:44.753Z,7.10
2023-05-10T19:56:12.680Z,7.10
2023-05-10T19:58:39.583Z,6.50
2023-05-10T20:01:07.743Z,6.40
2023-05-10T20:03:36.179Z,7.47
2023-05-10T20:06:04.104Z,7.40
2023-05-10T20:08:31.420Z,6.93
2023-05-10T20:11:00.552Z,7.27
2023-05-10T20:13:28.702Z,7.63
2023-05-10T20:15:56.889Z,7.73
2023-05-10T20:18:23.905Z,6.80
2023-05-10T20:20:55.214Z,7.10
2023-05-10T20:23:22.740Z,6.70
2023-05-10T20:25:50.174Z,6.83
2023-05-10T20:28:23.007Z,7.30
2023-05-10T20:30:53.133Z,6.90
2023-05-10T20:33:20.808Z,6.47
2023-05-10T20:35:47.622Z,7.70
2023-05-10T20:38:14.334Z,7.53
2023-05-10T20:40:41.603Z,7.17
2023-05-10T20:43:08.410Z,7.60
2023-05-10T20:45:37.531Z,7.87
2023-05-10T20:48:05.024Z,6.40
2023-05-10T20:50:31.793Z,7.00
2023-05-10T20:52:58.542Z,7.00
2023-05-10T20:55:25.320Z,6.57
2023-05-10T20:57:52.818Z,7.60
2023-05-10T21:00:20.122Z,7.17
2023-05-10T21:02:47.126Z,7.63
2023-05-10T21:05:14.311Z,6.47
2023-05-10T21:07:41.129Z,7.07
2023-05-10T21:10:08.575Z,7.87
2023-05-10T21:12:35.319Z,7.00
2023-05-10T21:15:02.678Z,8.10
2023-05-10T21:17:29.434Z,6.33
2023-05-10T21:19:56.290Z,7.20
2023-05-10T21:22:23.060Z,7.20
2023-05-10T21:24:49.787Z,7.47
2023-05-10T21:27:16.610Z,8.03
2023-05-10T21:29:43.404Z,6.90
2023-05-10T21:32:10.361Z,8.13
2023-05-10T21:34:37.198Z,7.83
2023-05-10T21:37:04.002Z,7.70
2023-05-10T21:39:30.802Z,6.93
2023-05-10T21:41:59.415Z,6.93
2023-05-10T21:44:26.218Z,7.10
2023-05-10T21:46:52.960Z,7.60
2023-05-10T21:49:19.712Z,7.97
2023-05-10T21:51:47.274Z,7.53
2023-05-10T21:54:14.179Z,7.77
2023-05-10T21:56:40.971Z,7.80
2023-05-10T21:59:07.738Z,7.00
2023-05-10T22:01:34.499Z,7.20
2023-05-10T22:04:01.283Z,6.40
2023-05-10T22:06:28.038Z,7.10
2023-05-10T22:08:54.769Z,7.67
2023-05-10T22:11:21.859Z,7.20
2023-05-10T22:13:48.617Z,8.60
2023-05-10T22:16:15.468Z,7.70
2023-05-10T22:18:43.511Z,7.27
2023-05-10T22:21:10.670Z,7.73
2023-05-10T22:23:37.425Z,8.13
2023-05-10T22:26:04.655Z,7.77
2023-05-10T22:28:31.468Z,7.37
2023-05-10T22:30:58.269Z,7.70
2023-05-10T22:33:25.091Z,7.23
2023-05-10T22:35:52.091Z,8.00
2023-05-10T22:38:19.401Z,7.07
2023-05-10T22:40:46.164Z,7.00
2023-05-10T22:43:12.937Z,7.23
2023-05-10T22:45:40.403Z,6.63
2023-05-10T22:48:09.458Z,7.40
2023-05-10T22:50:37.005Z,7.00
2023-05-10T22:53:03.777Z,7.77
2023-05-10T22:55:30.624Z,7.90
2023-05-10T22:57:57.458Z,7.60
2023-05-10T23:00:24.219Z,7.60
2023-05-10T23:02:51.583Z,7.07
2023-05-10T23:05:18.570Z,7.10
2023-05-10T23:07:48.259Z,6.90
2023-05-10T23:10:15.432Z,7.67
2023-05-10T23:12:42.281Z,7.60
2023-05-10T23:15:09.555Z,7.40
2023-05-10T23:17:36.473Z,7.67
2023-05-10T23:20:03.963Z,6.90
2023-05-10T23:22:30.691Z,7.23
2023-05-10T23:24:57.450Z,6.63
2023-05-10T23:27:24.249Z,7.10
2023-05-10T23:29:55.375Z,8.13
2023-05-10T23:32:23.285Z,7.73
2023-05-10T23:34:50.046Z,7.67
2023-05-10T23:37:17.029Z,8.30
2023-05-10T23:39:45.274Z,8.60
2023-05-10T23:42:12.059Z,7.80
2023-05-10T23:44:38.782Z,8.00
2023-05-10T23:47:06.055Z,7.93
2023-05-10T23:49:32.960Z,8.13
2023-05-10T23:51:59.788Z,7.90
2023-05-10T23:54:26.534Z,8.63
2023-05-10T23:56:53.352Z,8.97
2023-05-10T23:59:20.100Z,8.47
